sensor_id;sensor_type;location;lat;lon;timestamp;P1;durP1;ratioP1;P2;durP2;ratioP2
43070;SDS011;36278;47.952;21.714;2022-12-29T00:02:01;40.27;;;25.30;;
43070;SDS011;36278;47.952;21.714;2022-12-29T00:04:27;42.80;;;27.30;;
43070;SDS011;36278;47.952;21.714;2022-12-29T00:06:52;38.83;;;26.03;;
43070;SDS011;36278;47.952;21.714;2022-12-29T00:09:19;39.73;;;25.33;;
43070;SDS011;36278;47.952;21.714;2022-12-29T00:11:45;38.67;;;24.27;;
43070;SDS011;36278;47.952;21.714;2022-12-29T00:14:10;38.03;;;25.37;;
43070;SDS011;36278;47.952;21.714;2022-12-29T00:16:55;39.87;;;25.17;;
43070;SDS011;36278;47.952;21.714;2022-12-29T00:19:21;44.93;;;27.23;;
43070;SDS011;36278;47.952;21.714;2022-12-29T00:22:08;44.07;;;25.13;;
43070;SDS011;36278;47.952;21.714;2022-12-29T00:24:53;38.07;;;25.13;;
43070;SDS011;36278;47.952;21.714;2022-12-29T00:27:38;40.00;;;24.20;;
43070;SDS011;36278;47.952;21.714;2022-12-29T00:36:02;38.60;;;24.23;;
43070;SDS011;36278;47.952;21.714;2022-12-29T00:38:31;40.93;;;24.53;;
43070;SDS011;36278;47.952;21.714;2022-12-29T00:41:18;41.37;;;26.97;;
43070;SDS011;36278;47.952;21.714;2022-12-29T00:46:30;52.90;;;31.43;;
43070;SDS011;36278;47.952;21.714;2022-12-29T00:48:56;56.63;;;38.43;;
43070;SDS011;36278;47.952;21.714;2022-12-29T00:51:40;55.90;;;37.10;;
43070;SDS011;36278;47.952;21.714;2022-12-29T00:54:06;65.70;;;42.83;;
43070;SDS011;36278;47.952;21.714;2022-12-29T00:56:31;70.30;;;47.93;;
43070;SDS011;36278;47.952;21.714;2022-12-29T00:59:01;68.00;;;44.57;;
43070;SDS011;36278;47.952;21.714;2022-12-29T01:01:28;69.93;;;43.73;;
43070;SDS011;36278;47.952;21.714;2022-12-29T01:03:53;63.63;;;42.40;;
43070;SDS011;36278;47.952;21.714;2022-12-29T01:06:19;59.63;;;39.03;;
43070;SDS011;36278;47.952;21.714;2022-12-29T01:08:44;56.27;;;38.20;;
43070;SDS011;36278;47.952;21.714;2022-12-29T01:11:10;55.40;;;37.33;;
43070;SDS011;36278;47.952;21.714;2022-12-29T01:13:37;54.03;;;36.17;;
43070;SDS011;36278;47.952;21.714;2022-12-29T01:16:03;52.97;;;35.17;;
43070;SDS011;36278;47.952;21.714;2022-12-29T01:18:30;43.17;;;29.30;;
43070;SDS011;36278;47.952;21.714;2022-12-29T01:21:00;45.53;;;30.37;;
43070;SDS011;36278;47.952;21.714;2022-12-29T01:23:27;44.70;;;29.70;;
43070;SDS011;36278;47.952;21.714;2022-12-29T01:25:53;45.57;;;28.90;;
43070;SDS011;36278;47.952;21.714;2022-12-29T01:28:19;46.57;;;27.60;;
43070;SDS011;36278;47.952;21.714;2022-12-29T01:30:44;41.97;;;27.27;;
43070;SDS011;36278;47.952;21.714;2022-12-29T01:33:10;41.33;;;26.27;;
43070;SDS011;36278;47.952;21.714;2022-12-29T01:35:35;42.27;;;26.77;;
43070;SDS011;36278;47.952;21.714;2022-12-29T01:38:01;46.27;;;26.33;;
43070;SDS011;36278;47.952;21.714;2022-12-29T01:40:26;41.17;;;25.50;;
43070;SDS011;36278;47.952;21.714;2022-12-29T01:42:52;38.90;;;26.67;;
43070;SDS011;36278;47.952;21.714;2022-12-29T01:45:17;42.33;;;25.60;;
43070;SDS011;36278;47.952;21.714;2022-12-29T01:47:44;41.87;;;25.97;;
43070;SDS011;36278;47.952;21.714;2022-12-29T01:50:21;39.70;;;25.47;;
43070;SDS011;36278;47.952;21.714;2022-12-29T01:52:50;43.87;;;26.80;;
43070;SDS011;36278;47.952;21.714;2022-12-29T01:55:21;37.70;;;25.43;;
43070;SDS011;36278;47.952;21.714;2022-12-29T01:57:49;39.27;;;25.93;;
43070;SDS011;36278;47.952;21.714;2022-12-29T02:00:18;39.10;;;24.50;;
43070;SDS011;36278;47.952;21.714;2022-12-29T02:02:53;42.87;;;26.43;;
43070;SDS011;36278;47.952;21.714;2022-12-29T02:08:21;42.37;;;27.03;;
43070;SDS011;36278;47.952;21.714;2022-12-29T02:10:49;43.00;;;27.17;;
43070;SDS011;36278;47.952;21.714;2022-12-29T02:13:15;39.90;;;27.27;;
43070;SDS011;36278;47.952;21.714;2022-12-29T02:27:36;40.53;;;27.77;;
43070;SDS011;36278;47.952;21.714;2022-12-29T02:32:22;43.57;;;27.07;;
43070;SDS011;36278;47.952;21.714;2022-12-29T02:37:27;44.23;;;26.87;;
43070;SDS011;36278;47.952;21.714;2022-12-29T02:43:09;45.93;;;26.13;;
43070;SDS011;36278;47.952;21.714;2022-12-29T02:45:49;40.07;;;25.63;;
43070;SDS011;36278;47.952;21.714;2022-12-29T02:50:53;39.00;;;25.03;;
43070;SDS011;36278;47.952;21.714;2022-12-29T02:53:29;40.03;;;24.67;;
43070;SDS011;36278;47.952;21.714;2022-12-29T02:56:17;37.37;;;24.40;;
43070;SDS011;36278;47.952;21.714;2022-12-29T02:58:42;37.97;;;23.60;;
43070;SDS011;36278;47.952;21.714;2022-12-29T03:04:35;34.70;;;22.10;;
43070;SDS011;36278;47.952;21.714;2022-12-29T03:07:06;36.13;;;22.97;;
43070;SDS011;36278;47.952;21.714;2022-12-29T03:09:37;34.87;;;21.07;;
43070;SDS011;36278;47.952;21.714;2022-12-29T03:15:24;31.37;;;19.97;;
43070;SDS011;36278;47.952;21.714;2022-12-29T03:18:21;30.93;;;20.93;;
43070;SDS011;36278;47.952;21.714;2022-12-29T03:21:13;33.53;;;20.63;;
43070;SDS011;36278;47.952;21.714;2022-12-29T03:23:40;35.20;;;21.13;;
43070;SDS011;36278;47.952;21.714;2022-12-29T03:26:09;36.20;;;20.67;;
43070;SDS011;36278;47.952;21.714;2022-12-29T03:28:47;31.07;;;21.23;;
43070;SDS011;36278;47.952;21.714;2022-12-29T03:31:17;34.63;;;21.43;;
43070;SDS011;36278;47.952;21.714;2022-12-29T03:33:44;33.67;;;21.20;;
43070;SDS011;36278;47.952;21.714;2022-12-29T03:36:14;33.87;;;21.53;;
43070;SDS011;36278;47.952;21.714;2022-12-29T03:38:47;33.22;;;21.40;;
43070;SDS011;36278;47.952;21.714;2022-12-29T03:41:20;35.77;;;22.23;;
43070;SDS011;36278;47.952;21.714;2022-12-29T03:43:49;35.80;;;24.23;;
43070;SDS011;36278;47.952;21.714;2022-12-29T03:46:15;39.70;;;24.80;;
43070;SDS011;36278;47.952;21.714;2022-12-29T03:48:40;38.30;;;23.80;;
43070;SDS011;36278;47.952;21.714;2022-12-29T03:51:06;37.97;;;23.73;;
43070;SDS011;36278;47.952;21.714;2022-12-29T03:53:31;36.90;;;24.73;;
43070;SDS011;36278;47.952;21.714;2022-12-29T03:55:57;38.53;;;24.10;;
43070;SDS011;36278;47.952;21.714;2022-12-29T03:58:22;46.90;;;25.03;;
43070;SDS011;36278;47.952;21.714;2022-12-29T04:00:48;40.83;;;25.77;;
43070;SDS011;36278;47.952;21.714;2022-12-29T04:03:13;35.73;;;24.97;;
43070;SDS011;36278;47.952;21.714;2022-12-29T04:05:38;36.17;;;23.73;;
43070;SDS011;36278;47.952;21.714;2022-12-29T04:08:04;38.17;;;24.83;;
43070;SDS011;36278;47.952;21.714;2022-12-29T04:10:30;38.60;;;24.67;;
43070;SDS011;36278;47.952;21.714;2022-12-29T04:12:55;43.20;;;25.40;;
43070;SDS011;36278;47.952;21.714;2022-12-29T04:15:20;43.40;;;26.00;;
43070;SDS011;36278;47.952;21.714;2022-12-29T04:17:46;43.13;;;26.93;;
43070;SDS011;36278;47.952;21.714;2022-12-29T04:20:11;47.87;;;29.43;;
43070;SDS011;36278;47.952;21.714;2022-12-29T04:22:59;44.23;;;27.17;;
43070;SDS011;36278;47.952;21.714;2022-12-29T04:25:25;55.90;;;31.07;;
43070;SDS011;36278;47.952;21.714;2022-12-29T04:27:50;59.17;;;33.63;;
43070;SDS011;36278;47.952;21.714;2022-12-29T04:30:16;63.60;;;34.43;;
43070;SDS011;36278;47.952;21.714;2022-12-29T04:32:41;57.47;;;32.43;;
43070;SDS011;36278;47.952;21.714;2022-12-29T04:35:07;51.63;;;31.30;;
43070;SDS011;36278;47.952;21.714;2022-12-29T04:37:32;49.30;;;29.07;;
43070;SDS011;36278;47.952;21.714;2022-12-29T04:39:58;42.90;;;26.83;;
43070;SDS011;36278;47.952;21.714;2022-12-29T04:42:23;47.83;;;27.53;;
43070;SDS011;36278;47.952;21.714;2022-12-29T04:44:48;44.93;;;27.57;;
43070;SDS011;36278;47.952;21.714;2022-12-29T04:47:14;42.60;;;25.80;;
43070;SDS011;36278;47.952;21.714;2022-12-29T04:49:39;42.73;;;25.83;;
43070;SDS011;36278;47.952;21.714;2022-12-29T04:52:05;43.97;;;26.63;;
43070;SDS011;36278;47.952;21.714;2022-12-29T04:54:30;40.10;;;25.63;;
43070;SDS011;36278;47.952;21.714;2022-12-29T04:56:55;40.50;;;24.67;;
43070;SDS011;36278;47.952;21.714;2022-12-29T04:59:21;37.93;;;24.47;;
43070;SDS011;36278;47.952;21.714;2022-12-29T05:01:46;40.83;;;24.73;;
43070;SDS011;36278;47.952;21.714;2022-12-29T05:04:12;43.23;;;24.83;;
43070;SDS011;36278;47.952;21.714;2022-12-29T05:06:37;40.33;;;23.83;;
43070;SDS011;36278;47.952;21.714;2022-12-29T05:09:03;39.83;;;24.27;;
43070;SDS011;36278;47.952;21.714;2022-12-29T05:11:28;36.30;;;22.07;;
43070;SDS011;36278;47.952;21.714;2022-12-29T05:13:54;33.50;;;22.50;;
43070;SDS011;36278;47.952;21.714;2022-12-29T05:16:19;42.10;;;24.13;;
43070;SDS011;36278;47.952;21.714;2022-12-29T05:18:44;41.37;;;24.53;;
43070;SDS011;36278;47.952;21.714;2022-12-29T05:21:10;43.07;;;24.67;;
43070;SDS011;36278;47.952;21.714;2022-12-29T05:23:35;33.17;;;21.70;;
43070;SDS011;36278;47.952;21.714;2022-12-29T05:26:01;37.73;;;22.90;;
43070;SDS011;36278;47.952;21.714;2022-12-29T05:28:26;34.33;;;22.27;;
43070;SDS011;36278;47.952;21.714;2022-12-29T05:30:51;39.37;;;22.63;;
43070;SDS011;36278;47.952;21.714;2022-12-29T05:33:17;38.27;;;24.60;;
43070;SDS011;36278;47.952;21.714;2022-12-29T05:35:44;35.27;;;22.27;;
43070;SDS011;36278;47.952;21.714;2022-12-29T05:38:09;34.03;;;22.17;;
43070;SDS011;36278;47.952;21.714;2022-12-29T05:40:35;36.30;;;24.03;;
43070;SDS011;36278;47.952;21.714;2022-12-29T05:43:00;37.17;;;22.73;;
43070;SDS011;36278;47.952;21.714;2022-12-29T05:45:26;43.77;;;25.83;;
43070;SDS011;36278;47.952;21.714;2022-12-29T05:47:51;46.60;;;25.30;;
43070;SDS011;36278;47.952;21.714;2022-12-29T05:50:17;46.33;;;24.50;;
43070;SDS011;36278;47.952;21.714;2022-12-29T05:52:42;50.63;;;25.10;;
43070;SDS011;36278;47.952;21.714;2022-12-29T05:55:08;50.27;;;25.70;;
43070;SDS011;36278;47.952;21.714;2022-12-29T05:57:34;46.60;;;26.13;;
43070;SDS011;36278;47.952;21.714;2022-12-29T05:59:59;45.43;;;27.03;;
43070;SDS011;36278;47.952;21.714;2022-12-29T06:02:24;47.13;;;25.23;;
43070;SDS011;36278;47.952;21.714;2022-12-29T06:04:50;42.77;;;25.97;;
43070;SDS011;36278;47.952;21.714;2022-12-29T06:07:16;42.07;;;25.00;;
43070;SDS011;36278;47.952;21.714;2022-12-29T06:09:41;44.13;;;25.93;;
43070;SDS011;36278;47.952;21.714;2022-12-29T06:12:06;47.37;;;26.10;;
43070;SDS011;36278;47.952;21.714;2022-12-29T06:14:32;40.83;;;25.83;;
43070;SDS011;36278;47.952;21.714;2022-12-29T06:16:57;44.80;;;26.53;;
43070;SDS011;36278;47.952;21.714;2022-12-29T06:19:23;47.40;;;26.40;;
43070;SDS011;36278;47.952;21.714;2022-12-29T06:21:48;42.87;;;25.77;;
43070;SDS011;36278;47.952;21.714;2022-12-29T06:24:14;43.93;;;25.93;;
43070;SDS011;36278;47.952;21.714;2022-12-29T06:26:39;39.97;;;25.47;;
43070;SDS011;36278;47.952;21.714;2022-12-29T06:29:05;45.47;;;26.43;;
43070;SDS011;36278;47.952;21.714;2022-12-29T06:31:33;43.20;;;25.47;;
43070;SDS011;36278;47.952;21.714;2022-12-29T06:33:58;42.27;;;25.17;;
43070;SDS011;36278;47.952;21.714;2022-12-29T06:36:24;39.10;;;23.30;;
43070;SDS011;36278;47.952;21.714;2022-12-29T06:38:49;37.53;;;24.67;;
43070;SDS011;36278;47.952;21.714;2022-12-29T06:41:17;39.27;;;25.47;;
43070;SDS011;36278;47.952;21.714;2022-12-29T06:43:43;41.43;;;26.43;;
43070;SDS011;36278;47.952;21.714;2022-12-29T06:46:08;40.13;;;26.33;;
43070;SDS011;36278;47.952;21.714;2022-12-29T06:48:34;42.30;;;26.60;;
43070;SDS011;36278;47.952;21.714;2022-12-29T06:50:59;39.13;;;26.33;;
43070;SDS011;36278;47.952;21.714;2022-12-29T06:53:25;45.93;;;28.13;;
43070;SDS011;36278;47.952;21.714;2022-12-29T06:55:50;43.73;;;28.57;;
43070;SDS011;36278;47.952;21.714;2022-12-29T06:58:16;44.07;;;27.53;;
43070;SDS011;36278;47.952;21.714;2022-12-29T07:00:41;43.60;;;27.33;;
43070;SDS011;36278;47.952;21.714;2022-12-29T07:03:07;36.97;;;22.53;;
43070;SDS011;36278;47.952;21.714;2022-12-29T07:05:32;38.30;;;23.73;;
43070;SDS011;36278;47.952;21.714;2022-12-29T07:07:58;38.13;;;24.33;;
43070;SDS011;36278;47.952;21.714;2022-12-29T07:10:23;38.83;;;24.53;;
43070;SDS011;36278;47.952;21.714;2022-12-29T07:12:49;40.83;;;24.47;;
43070;SDS011;36278;47.952;21.714;2022-12-29T07:15:15;43.90;;;24.90;;
43070;SDS011;36278;47.952;21.714;2022-12-29T07:17:40;46.83;;;26.63;;
43070;SDS011;36278;47.952;21.714;2022-12-29T07:20:06;41.67;;;27.67;;
43070;SDS011;36278;47.952;21.714;2022-12-29T07:22:32;36.87;;;26.90;;
43070;SDS011;36278;47.952;21.714;2022-12-29T07:24:58;44.40;;;28.03;;
43070;SDS011;36278;47.952;21.714;2022-12-29T07:27:23;42.37;;;27.20;;
43070;SDS011;36278;47.952;21.714;2022-12-29T07:29:48;40.50;;;26.13;;
43070;SDS011;36278;47.952;21.714;2022-12-29T07:32:14;41.57;;;24.10;;
43070;SDS011;36278;47.952;21.714;2022-12-29T07:34:39;42.10;;;25.20;;
43070;SDS011;36278;47.952;21.714;2022-12-29T07:37:05;36.03;;;24.03;;
43070;SDS011;36278;47.952;21.714;2022-12-29T07:39:31;39.50;;;24.77;;
43070;SDS011;36278;47.952;21.714;2022-12-29T07:41:56;47.93;;;28.73;;
43070;SDS011;36278;47.952;21.714;2022-12-29T07:44:22;45.37;;;27.83;;
43070;SDS011;36278;47.952;21.714;2022-12-29T07:46:47;39.60;;;26.13;;
43070;SDS011;36278;47.952;21.714;2022-12-29T07:49:12;41.30;;;24.70;;
43070;SDS011;36278;47.952;21.714;2022-12-29T07:51:38;37.10;;;24.17;;
43070;SDS011;36278;47.952;21.714;2022-12-29T07:54:03;32.73;;;23.33;;
43070;SDS011;36278;47.952;21.714;2022-12-29T07:56:29;42.27;;;24.00;;
43070;SDS011;36278;47.952;21.714;2022-12-29T07:58:54;36.50;;;24.90;;
43070;SDS011;36278;47.952;21.714;2022-12-29T08:01:20;44.80;;;24.10;;
43070;SDS011;36278;47.952;21.714;2022-12-29T08:03:48;35.93;;;23.33;;
43070;SDS011;36278;47.952;21.714;2022-12-29T08:06:13;34.80;;;21.80;;
43070;SDS011;36278;47.952;21.714;2022-12-29T08:08:38;34.67;;;23.60;;
43070;SDS011;36278;47.952;21.714;2022-12-29T08:11:04;35.83;;;22.80;;
43070;SDS011;36278;47.952;21.714;2022-12-29T08:13:29;32.97;;;23.07;;
43070;SDS011;36278;47.952;21.714;2022-12-29T08:15:57;38.87;;;24.47;;
43070;SDS011;36278;47.952;21.714;2022-12-29T08:18:23;30.00;;;19.63;;
43070;SDS011;36278;47.952;21.714;2022-12-29T08:20:49;33.70;;;19.57;;
43070;SDS011;36278;47.952;21.714;2022-12-29T08:23:14;28.67;;;17.90;;
43070;SDS011;36278;47.952;21.714;2022-12-29T08:25:40;28.77;;;16.67;;
43070;SDS011;36278;47.952;21.714;2022-12-29T08:28:05;27.93;;;17.53;;
43070;SDS011;36278;47.952;21.714;2022-12-29T08:30:31;24.93;;;17.20;;
43070;SDS011;36278;47.952;21.714;2022-12-29T08:32:56;24.77;;;16.20;;
43070;SDS011;36278;47.952;21.714;2022-12-29T08:35:21;31.33;;;17.33;;
43070;SDS011;36278;47.952;21.714;2022-12-29T08:37:47;32.03;;;21.20;;
43070;SDS011;36278;47.952;21.714;2022-12-29T08:40:12;27.77;;;17.80;;
43070;SDS011;36278;47.952;21.714;2022-12-29T08:42:38;28.67;;;19.40;;
43070;SDS011;36278;47.952;21.714;2022-12-29T08:45:04;31.93;;;19.87;;
43070;SDS011;36278;47.952;21.714;2022-12-29T08:47:30;31.30;;;20.27;;
43070;SDS011;36278;47.952;21.714;2022-12-29T08:49:55;32.67;;;20.53;;
43070;SDS011;36278;47.952;21.714;2022-12-29T08:52:21;28.23;;;18.43;;
43070;SDS011;36278;47.952;21.714;2022-12-29T08:54:46;26.60;;;17.90;;
43070;SDS011;36278;47.952;21.714;2022-12-29T08:57:12;23.97;;;15.77;;
43070;SDS011;36278;47.952;21.714;2022-12-29T08:59:37;23.70;;;14.80;;
43070;SDS011;36278;47.952;21.714;2022-12-29T09:02:03;22.43;;;14.73;;
43070;SDS011;36278;47.952;21.714;2022-12-29T09:04:28;21.73;;;15.40;;
43070;SDS011;36278;47.952;21.714;2022-12-29T09:06:54;22.10;;;15.47;;
43070;SDS011;36278;47.952;21.714;2022-12-29T09:09:19;23.37;;;16.10;;
43070;SDS011;36278;47.952;21.714;2022-12-29T09:11:45;23.67;;;15.97;;
43070;SDS011;36278;47.952;21.714;2022-12-29T09:14:11;29.27;;;17.73;;
43070;SDS011;36278;47.952;21.714;2022-12-29T09:16:37;26.97;;;16.53;;
43070;SDS011;36278;47.952;21.714;2022-12-29T09:19:03;26.67;;;17.70;;
43070;SDS011;36278;47.952;21.714;2022-12-29T09:21:29;30.10;;;17.97;;
43070;SDS011;36278;47.952;21.714;2022-12-29T09:23:54;29.33;;;18.90;;
43070;SDS011;36278;47.952;21.714;2022-12-29T09:26:21;28.07;;;18.90;;
43070;SDS011;36278;47.952;21.714;2022-12-29T09:28:47;31.20;;;18.07;;
43070;SDS011;36278;47.952;21.714;2022-12-29T09:31:12;28.83;;;18.40;;
43070;SDS011;36278;47.952;21.714;2022-12-29T09:33:38;29.57;;;19.30;;
43070;SDS011;36278;47.952;21.714;2022-12-29T09:36:04;30.60;;;20.03;;
43070;SDS011;36278;47.952;21.714;2022-12-29T09:38:29;28.00;;;19.67;;
43070;SDS011;36278;47.952;21.714;2022-12-29T09:41:15;34.57;;;19.43;;
43070;SDS011;36278;47.952;21.714;2022-12-29T09:43:52;32.40;;;18.50;;
43070;SDS011;36278;47.952;21.714;2022-12-29T09:46:47;32.30;;;19.97;;
43070;SDS011;36278;47.952;21.714;2022-12-29T09:52:13;30.70;;;19.90;;
43070;SDS011;36278;47.952;21.714;2022-12-29T09:57:40;31.37;;;20.07;;
43070;SDS011;36278;47.952;21.714;2022-12-29T10:00:13;31.37;;;17.57;;
43070;SDS011;36278;47.952;21.714;2022-12-29T10:03:06;32.13;;;16.53;;
43070;SDS011;36278;47.952;21.714;2022-12-29T10:16:37;18.90;;;13.10;;
43070;SDS011;36278;47.952;21.714;2022-12-29T10:25:19;19.10;;;11.33;;
43070;SDS011;36278;47.952;21.714;2022-12-29T10:27:48;16.80;;;12.27;;
43070;SDS011;36278;47.952;21.714;2022-12-29T10:30:14;19.80;;;11.93;;
43070;SDS011;36278;47.952;21.714;2022-12-29T10:32:45;21.47;;;14.90;;
43070;SDS011;36278;47.952;21.714;2022-12-29T10:40:46;19.53;;;12.13;;
43070;SDS011;36278;47.952;21.714;2022-12-29T10:43:26;18.90;;;12.37;;
43070;SDS011;36278;47.952;21.714;2022-12-29T10:46:16;26.13;;;14.07;;
43070;SDS011;36278;47.952;21.714;2022-12-29T10:48:45;19.67;;;13.17;;
43070;SDS011;36278;47.952;21.714;2022-12-29T10:51:15;19.60;;;13.17;;
43070;SDS011;36278;47.952;21.714;2022-12-29T10:53:47;25.07;;;13.80;;
43070;SDS011;36278;47.952;21.714;2022-12-29T10:56:28;21.53;;;14.07;;
43070;SDS011;36278;47.952;21.714;2022-12-29T10:58:58;22.63;;;13.40;;
43070;SDS011;36278;47.952;21.714;2022-12-29T11:01:37;20.93;;;12.87;;
43070;SDS011;36278;47.952;21.714;2022-12-29T11:07:00;19.77;;;12.27;;
43070;SDS011;36278;47.952;21.714;2022-12-29T11:09:27;19.17;;;12.87;;
43070;SDS011;36278;47.952;21.714;2022-12-29T11:11:55;21.13;;;12.93;;
43070;SDS011;36278;47.952;21.714;2022-12-29T11:14:38;22.67;;;13.87;;
43070;SDS011;36278;47.952;21.714;2022-12-29T11:17:05;20.03;;;12.50;;
43070;SDS011;36278;47.952;21.714;2022-12-29T11:19:32;20.60;;;13.23;;
43070;SDS011;36278;47.952;21.714;2022-12-29T11:22:18;20.57;;;12.80;;
43070;SDS011;36278;47.952;21.714;2022-12-29T11:24:48;20.30;;;12.90;;
43070;SDS011;36278;47.952;21.714;2022-12-29T11:27:17;17.90;;;12.40;;
43070;SDS011;36278;47.952;21.714;2022-12-29T11:29:48;22.80;;;12.02;;
43070;SDS011;36278;47.952;21.714;2022-12-29T11:32:25;17.73;;;12.83;;
43070;SDS011;36278;47.952;21.714;2022-12-29T11:34:52;17.37;;;11.80;;
43070;SDS011;36278;47.952;21.714;2022-12-29T11:37:18;17.10;;;11.50;;
43070;SDS011;36278;47.952;21.714;2022-12-29T11:43:11;16.60;;;10.70;;
43070;SDS011;36278;47.952;21.714;2022-12-29T11:47:57;14.83;;;10.03;;
43070;SDS011;36278;47.952;21.714;2022-12-29T11:50:26;17.00;;;11.20;;
43070;SDS011;36278;47.952;21.714;2022-12-29T11:56:12;20.07;;;11.90;;
43070;SDS011;36278;47.952;21.714;2022-12-29T11:58:40;17.63;;;11.70;;
43070;SDS011;36278;47.952;21.714;2022-12-29T12:01:10;15.37;;;10.53;;
43070;SDS011;36278;47.952;21.714;2022-12-29T12:03:50;18.50;;;12.00;;
43070;SDS011;36278;47.952;21.714;2022-12-29T12:06:24;18.60;;;11.30;;
43070;SDS011;36278;47.952;21.714;2022-12-29T12:11:51;17.77;;;11.60;;
43070;SDS011;36278;47.952;21.714;2022-12-29T12:14:36;17.67;;;11.80;;
43070;SDS011;36278;47.952;21.714;2022-12-29T12:25:27;19.55;;;12.13;;
43070;SDS011;36278;47.952;21.714;2022-12-29T12:28:09;20.13;;;12.33;;
43070;SDS011;36278;47.952;21.714;2022-12-29T12:30:43;18.77;;;12.27;;
43070;SDS011;36278;47.952;21.714;2022-12-29T12:33:17;18.67;;;12.47;;
43070;SDS011;36278;47.952;21.714;2022-12-29T12:36:18;15.90;;;11.53;;
43070;SDS011;36278;47.952;21.714;2022-12-29T12:41:11;18.27;;;11.87;;
43070;SDS011;36278;47.952;21.714;2022-12-29T12:43:44;17.47;;;11.90;;
43070;SDS011;36278;47.952;21.714;2022-12-29T12:55:02;17.48;;;11.32;;
43070;SDS011;36278;47.952;21.714;2022-12-29T12:57:54;19.23;;;12.60;;
43070;SDS011;36278;47.952;21.714;2022-12-29T13:00:25;19.55;;;12.02;;
43070;SDS011;36278;47.952;21.714;2022-12-29T13:06:42;17.07;;;11.83;;
43070;SDS011;36278;47.952;21.714;2022-12-29T13:14:33;22.97;;;12.90;;
43070;SDS011;36278;47.952;21.714;2022-12-29T13:19:51;26.30;;;16.63;;
43070;SDS011;36278;47.952;21.714;2022-12-29T13:22:43;23.63;;;16.90;;
43070;SDS011;36278;47.952;21.714;2022-12-29T13:30:36;34.53;;;19.53;;
43070;SDS011;36278;47.952;21.714;2022-12-29T13:36:05;27.00;;;18.50;;
43070;SDS011;36278;47.952;21.714;2022-12-29T13:38:35;29.97;;;19.27;;
43070;SDS011;36278;47.952;21.714;2022-12-29T13:41:09;29.50;;;18.33;;
43070;SDS011;36278;47.952;21.714;2022-12-29T13:43:46;28.10;;;18.17;;
43070;SDS011;36278;47.952;21.714;2022-12-29T13:46:17;28.27;;;18.27;;
43070;SDS011;36278;47.952;21.714;2022-12-29T13:51:24;34.87;;;24.30;;
43070;SDS011;36278;47.952;21.714;2022-12-29T13:54:11;26.53;;;18.80;;
43070;SDS011;36278;47.952;21.714;2022-12-29T13:59:42;27.90;;;17.77;;
43070;SDS011;36278;47.952;21.714;2022-12-29T14:02:26;26.73;;;19.53;;
43070;SDS011;36278;47.952;21.714;2022-12-29T14:05:03;28.60;;;20.53;;
43070;SDS011;36278;47.952;21.714;2022-12-29T14:07:35;29.10;;;20.43;;
43070;SDS011;36278;47.952;21.714;2022-12-29T14:10:03;31.13;;;20.77;;
43070;SDS011;36278;47.952;21.714;2022-12-29T14:15:18;29.03;;;20.93;;
43070;SDS011;36278;47.952;21.714;2022-12-29T14:18:00;33.33;;;20.80;;
43070;SDS011;36278;47.952;21.714;2022-12-29T14:20:29;31.57;;;21.73;;
43070;SDS011;36278;47.952;21.714;2022-12-29T14:22:58;35.17;;;24.53;;
43070;SDS011;36278;47.952;21.714;2022-12-29T14:26:09;38.87;;;23.80;;
43070;SDS011;36278;47.952;21.714;2022-12-29T14:28:47;37.93;;;23.67;;
43070;SDS011;36278;47.952;21.714;2022-12-29T14:36:35;37.43;;;25.20;;
43070;SDS011;36278;47.952;21.714;2022-12-29T14:39:01;37.30;;;24.13;;
43070;SDS011;36278;47.952;21.714;2022-12-29T14:41:32;38.97;;;23.93;;
43070;SDS011;36278;47.952;21.714;2022-12-29T14:44:19;34.97;;;24.33;;
43070;SDS011;36278;47.952;21.714;2022-12-29T14:46:54;31.67;;;23.33;;
43070;SDS011;36278;47.952;21.714;2022-12-29T14:49:24;36.20;;;23.30;;
43070;SDS011;36278;47.952;21.714;2022-12-29T14:52:16;34.73;;;22.90;;
43070;SDS011;36278;47.952;21.714;2022-12-29T14:54:43;35.50;;;22.00;;
43070;SDS011;36278;47.952;21.714;2022-12-29T14:57:31;32.37;;;22.53;;
43070;SDS011;36278;47.952;21.714;2022-12-29T15:00:06;32.50;;;21.93;;
43070;SDS011;36278;47.952;21.714;2022-12-29T15:03:24;31.57;;;22.47;;
43070;SDS011;36278;47.952;21.714;2022-12-29T15:05:48;30.00;;;21.17;;
43070;SDS011;36278;47.952;21.714;2022-12-29T15:08:18;29.03;;;20.33;;
43070;SDS011;36278;47.952;21.714;2022-12-29T15:10:56;32.47;;;21.63;;
43070;SDS011;36278;47.952;21.714;2022-12-29T15:13:35;30.27;;;21.07;;
43070;SDS011;36278;47.952;21.714;2022-12-29T15:16:03;31.27;;;21.40;;
43070;SDS011;36278;47.952;21.714;2022-12-29T15:18:30;28.07;;;20.30;;
43070;SDS011;36278;47.952;21.714;2022-12-29T15:21:00;30.30;;;20.17;;
43070;SDS011;36278;47.952;21.714;2022-12-29T15:23:30;33.35;;;21.27;;
43070;SDS011;36278;47.952;21.714;2022-12-29T15:25:59;30.17;;;20.67;;
43070;SDS011;36278;47.952;21.714;2022-12-29T15:28:28;28.63;;;20.77;;
43070;SDS011;36278;47.952;21.714;2022-12-29T15:31:12;35.77;;;23.07;;
43070;SDS011;36278;47.952;21.714;2022-12-29T15:33:47;38.80;;;26.97;;
43070;SDS011;36278;47.952;21.714;2022-12-29T15:36:24;33.13;;;22.37;;
43070;SDS011;36278;47.952;21.714;2022-12-29T15:38:52;31.43;;;22.90;;
43070;SDS011;36278;47.952;21.714;2022-12-29T15:41:26;36.97;;;25.30;;
43070;SDS011;36278;47.952;21.714;2022-12-29T15:46:39;45.67;;;29.27;;
43070;SDS011;36278;47.952;21.714;2022-12-29T15:49:08;45.10;;;28.77;;
43070;SDS011;36278;47.952;21.714;2022-12-29T15:54:05;51.17;;;30.17;;
43070;SDS011;36278;47.952;21.714;2022-12-29T15:56:37;40.30;;;26.95;;
43070;SDS011;36278;47.952;21.714;2022-12-29T15:59:03;37.67;;;26.43;;
43070;SDS011;36278;47.952;21.714;2022-12-29T16:01:34;39.37;;;25.13;;
43070;SDS011;36278;47.952;21.714;2022-12-29T16:04:05;39.15;;;24.23;;
43070;SDS011;36278;47.952;21.714;2022-12-29T16:06:36;35.37;;;24.50;;
43070;SDS011;36278;47.952;21.714;2022-12-29T16:09:07;38.53;;;25.00;;
43070;SDS011;36278;47.952;21.714;2022-12-29T16:11:44;36.13;;;23.87;;
43070;SDS011;36278;47.952;21.714;2022-12-29T16:14:18;38.83;;;23.77;;
43070;SDS011;36278;47.952;21.714;2022-12-29T16:16:47;34.63;;;23.77;;
43070;SDS011;36278;47.952;21.714;2022-12-29T16:19:19;34.30;;;24.40;;
43070;SDS011;36278;47.952;21.714;2022-12-29T16:21:49;37.47;;;23.97;;
43070;SDS011;36278;47.952;21.714;2022-12-29T16:24:16;40.47;;;25.27;;
43070;SDS011;36278;47.952;21.714;2022-12-29T16:26:49;41.57;;;26.93;;
43070;SDS011;36278;47.952;21.714;2022-12-29T16:29:19;43.00;;;28.63;;
43070;SDS011;36278;47.952;21.714;2022-12-29T16:31:56;46.30;;;30.23;;
43070;SDS011;36278;47.952;21.714;2022-12-29T16:37:05;52.93;;;32.27;;
43070;SDS011;36278;47.952;21.714;2022-12-29T16:42:57;56.53;;;35.23;;
43070;SDS011;36278;47.952;21.714;2022-12-29T16:45:48;55.17;;;34.50;;
43070;SDS011;36278;47.952;21.714;2022-12-29T16:48:19;49.03;;;32.57;;
43070;SDS011;36278;47.952;21.714;2022-12-29T16:50:47;45.07;;;31.63;;
43070;SDS011;36278;47.952;21.714;2022-12-29T16:53:19;47.80;;;29.90;;